Time;durP1;ratioP1;P1;durP2;ratioP2;P2;SDS_P1;SDS_P2;PMS_P1;PMS_P2;Temp;Humidity;BMP_temperature;BMP_pressure;BME280_temperature;BME280_humidity;BME280_pressure;Samples;Min_cycle;Max_cycle;Signal;HPM_P1;HPM_P2
2020/12/22 00:02:17;;;;;;;21.17;12.50;;;;;;;0.29;84.66;97336.45;1734912;83;21166;-82
2020/12/22 00:04:44;;;;;;;17.73;10.93;;;;;;;0.35;84.82;97329.64;1734979;82;21155;-82
2020/12/22 00:07:11;;;;;;;21.17;12.40;;;;;;;0.36;84.76;97329.45;1734866;83;21154;-82
2020/12/22 00:09:38;;;;;;;19.55;11.55;;;;;;;0.35;84.60;97343.48;1734955;81;21511;-82
2020/12/22 00:12:16;;;;;;;14.85;8.93;;;;;;;0.34;84.60;97339.27;1730301;82;21535;-82
2020/12/22 00:14:44;;;;;;;17.48;8.20;;;;;;;0.32;84.60;97324.33;1728740;83;21108;-82
2020/12/22 00:17:12;;;;;;;17.80;10.30;;;;;;;0.34;84.61;97327.54;1728733;83;21475;-83
2020/12/22 00:19:39;;;;;;;14.90;8.15;;;;;;;0.32;84.71;97320.41;1728875;82;21146;-82
2020/12/22 00:22:06;;;;;;;12.07;7.03;;;;;;;0.32;84.71;97320.41;1728722;83;21146;-82
2020/12/22 00:24:33;;;;;;;15.45;8.65;;;;;;;0.32;84.66;97318.30;1728795;83;21317;-82
2020/12/22 00:27:00;;;;;;;16.97;11.08;;;;;;;0.21;84.75;97294.89;1728733;83;21139;-82
2020/12/22 00:29:27;;;;;;;13.28;8.73;;;;;;;0.21;84.75;97294.89;1728845;83;21143;-82
2020/12/22 00:32:00;;;;;;;21.65;12.00;;;;;;;0.32;84.70;97304.77;1728995;83;21154;-82
2020/12/22 00:34:23;;;;;;;20.57;11.88;;;;;;;0.31;84.66;97298.45;1728809;83;21119;-82
2020/12/22 00:36:50;;;;;;;16.95;9.75;;;;;;;0.23;84.59;97297.61;1728750;83;21178;-83
2020/12/22 00:39:18;;;;;;;14.78;9.25;;;;;;;0.23;84.59;97297.61;1728885;83;21522;-82
2020/12/22 00:41:45;;;;;;;17.40;10.08;;;;;;;0.29;84.61;97310.37;1728870;82;21119;-83
2020/12/22 00:44:12;;;;;;;18.10;10.38;;;;;;;0.31;84.45;97307.58;1728811;83;21289;-83
2020/12/22 00:46:39;;;;;;;15.13;9.20;;;;;;;0.31;84.45;97307.58;1729129;83;21130;-82
2020/12/22 00:49:06;;;;;;;14.90;9.68;;;;;;;0.19;84.45;97290.38;1728865;83;21108;-82
2020/12/22 00:51:33;;;;;;;15.68;9.10;;;;;;;0.29;84.26;97303.86;1729074;82;21142;-82
2020/12/22 00:53:59;;;;;;;16.27;10.82;;;;;;;0.27;84.21;97301.92;1728821;83;21273;-83
2020/12/22 00:56:26;;;;;;;14.93;8.78;;;;;;;0.27;84.25;97307.14;1728908;83;21151;-83
2020/12/22 00:58:53;;;;;;;14.15;9.15;;;;;;;0.25;84.20;97293.00;1728843;83;21166;-82
2020/12/22 01:01:20;;;;;;;11.35;7.03;;;;;;;0.30;84.30;97288.52;1728828;82;21119;-83
2020/12/22 01:03:47;;;;;;;18.40;10.03;;;;;;;0.32;84.20;97283.91;1728790;83;21150;-83
2020/12/22 01:06:16;;;;;;;15.23;9.23;;;;;;;0.34;84.20;97282.41;1728890;83;21506;-83
2020/12/22 01:08:44;;;;;;;12.07;7.62;;;;;;;0.37;84.13;97280.70;1728769;83;21170;-83
2020/12/22 01:11:11;;;;;;;12.58;7.53;;;;;;;0.37;84.02;97279.39;1730126;82;21545;-82
2020/12/22 01:13:38;;;;;;;14.55;8.90;;;;;;;0.39;83.93;97242.98;1734247;83;21647;-82
2020/12/22 01:16:05;;;;;;;9.45;5.67;;;;;;;0.40;83.86;97266.75;1734317;83;21123;-82
2020/12/22 01:18:32;;;;;;;13.32;7.92;;;;;;;0.40;83.78;97253.72;1734275;83;21633;-83
2020/12/22 01:20:59;;;;;;;13.43;8.33;;;;;;;0.43;83.75;97258.56;1734304;81;21622;-83
2020/12/22 01:23:26;;;;;;;10.60;6.45;;;;;;;0.43;83.74;97258.56;1734238;82;21276;-83
2020/12/22 01:25:54;;;;;;;14.38;9.25;;;;;;;0.42;83.62;97262.14;1734258;83;21159;-83
2020/12/22 01:28:21;;;;;;;12.63;8.43;;;;;;;0.41;83.62;97252.71;1734201;83;21269;-83
2020/12/22 01:30:48;;;;;;;14.90;8.60;;;;;;;0.39;83.58;97267.76;1734251;81;21311;-83
2020/12/22 01:33:15;;;;;;;13.62;6.62;;;;;;;0.39;83.58;97261.73;1734312;83;21276;-83
2020/12/22 01:35:42;;;;;;;13.60;9.25;;;;;;;0.37;83.55;97255.42;1734223;83;21134;-82
2020/12/22 01:38:09;;;;;;;9.50;5.83;;;;;;;0.40;83.56;97266.75;1734177;83;21146;-83
2020/12/22 01:40:36;;;;;;;14.85;9.25;;;;;;;0.37;83.50;97233.75;1734221;81;21512;-83
2020/12/22 01:43:03;;;;;;;9.98;6.00;;;;;;;0.26;83.50;97232.52;1734140;83;21282;-82
2020/12/22 01:45:30;;;;;;;13.00;8.33;;;;;;;0.37;83.54;97222.82;1734279;83;21276;-82
2020/12/22 01:47:57;;;;;;;16.35;9.83;;;;;;;0.41;83.47;97230.55;1734158;83;21505;-82
2020/12/22 01:50:24;;;;;;;16.52;10.53;;;;;;;0.41;83.39;97223.22;1734216;81;21165;-82
2020/12/22 01:52:51;;;;;;;17.92;8.93;;;;;;;0.41;83.39;97223.22;1734201;82;21261;-82
2020/12/22 01:55:18;;;;;;;14.23;9.18;;;;;;;0.32;83.36;97210.89;1734229;83;21138;-83
2020/12/22 01:57:45;;;;;;;15.05;9.60;;;;;;;0.21;83.36;97184.89;1734219;83;21158;-83
2020/12/22 02:00:12;;;;;;;18.45;10.40;;;;;;;0.26;83.39;97220.28;1734278;81;21147;-83
2020/12/22 02:02:41;;;;;;;17.57;10.55;;;;;;;0.22;83.45;97217.78;1734346;82;21157;-83
2020/12/22 02:05:08;;;;;;;15.30;8.78;;;;;;;0.22;83.42;97227.41;1734189;83;21142;-82
2020/12/22 02:07:36;;;;;;;15.32;10.03;;;;;;;0.22;83.70;97212.56;1734489;82;21288;-82
2020/12/22 02:10:04;;;;;;;11.78;6.58;;;;;;;0.19;83.77;97201.73;1734198;81;21559;-83
2020/12/22 02:12:35;;;;;;;17.27;9.35;;;;;;;0.19;83.90;97188.70;1734116;82;21636;-82
2020/12/22 02:15:02;;;;;;;17.17;8.35;;;;;;;0.13;84.03;97179.05;1733297;83;21528;-82
2020/12/22 02:17:29;;;;;;;14.20;8.33;;;;;;;0.13;84.03;97179.05;1734253;83;21272;-82
2020/12/22 02:19:57;;;;;;;14.25;8.23;;;;;;;0.22;84.00;97189.09;1734169;81;21119;-82
2020/12/22 02:22:24;;;;;;;13.93;8.53;;;;;;;0.12;84.02;97189.17;1734328;83;21154;-82
2020/12/22 02:24:51;;;;;;;15.08;9.55;;;;;;;0.20;84.02;97196.82;1734291;83;21140;-82
2020/12/22 02:27:18;;;;;;;10.78;7.00;;;;;;;0.16;84.05;97190.41;1734389;83;21147;-82
2020/12/22 02:29:45;;;;;;;17.12;10.25;;;;;;;0.12;83.98;97187.87;1734243;81;21143;-82
2020/12/22 02:32:11;;;;;;;13.85;7.62;;;;;;;0.07;84.04;97175.94;1734484;82;21127;-82
2020/12/22 02:34:38;;;;;;;15.85;8.80;;;;;;;0.17;84.20;97186.80;1734179;83;21138;-82
2020/12/22 02:37:05;;;;;;;15.23;10.10;;;;;;;0.17;84.11;97182.88;1734239;83;21637;-82
2020/12/22 02:39:32;;;;;;;13.28;9.15;;;;;;;0.16;84.06;97165.64;1734228;81;21138;-82
2020/12/22 02:41:59;;;;;;;8.78;5.72;;;;;;;0.18;84.11;97168.84;1734163;83;21134;-82
2020/12/22 02:44:28;;;;;;;12.55;7.47;;;;;;;0.24;83.94;97151.09;1734313;83;21154;-82
2020/12/22 02:46:55;;;;;;;15.38;6.83;;;;;;;0.31;83.79;97146.70;1734258;82;21525;-82
2020/12/22 02:49:22;;;;;;;16.02;9.78;;;;;;;0.33;83.59;97136.06;1734298;83;21145;-82
2020/12/22 02:51:49;;;;;;;16.67;9.70;;;;;;;0.33;83.54;97148.59;1734249;83;21139;-82
2020/12/22 02:54:16;;;;;;;12.37;7.20;;;;;;;0.32;83.50;97148.80;1734168;83;21166;-82
2020/12/22 02:56:45;;;;;;;16.25;9.65;;;;;;;0.30;83.42;97152.92;1734210;82;21146;-82
2020/12/22 02:59:12;;;;;;;14.43;8.68;;;;;;;0.28;83.31;97144.47;1739843;81;21494;-82
2020/12/22 03:01:39;;;;;;;15.18;9.08;;;;;;;0.28;83.31;97144.47;1764385;81;21467;-82
2020/12/22 03:04:07;;;;;;;19.05;10.32;;;;;;;0.24;83.38;97154.50;1764387;81;21131;-82
2020/12/22 03:06:33;;;;;;;14.58;8.95;;;;;;;0.25;83.27;97148.28;1764522;81;21401;-82
2020/12/22 03:09:00;;;;;;;10.90;7.53;;;;;;;0.27;83.34;97151.98;1764445;81;21134;-82
2020/12/22 03:11:27;;;;;;;14.83;9.98;;;;;;;0.25;83.23;97139.66;1763175;81;21171;-82
2020/12/22 03:13:54;;;;;;;16.55;10.05;;;;;;;0.19;83.20;97132.14;1734165;83;21115;-82
2020/12/22 03:16:21;;;;;;;17.25;10.63;;;;;;;0.15;83.23;97124.42;1734206;83;21155;-82
2020/12/22 03:18:48;;;;;;;16.40;9.30;;;;;;;0.17;83.32;97130.74;1734124;82;21111;-82
2020/12/22 03:21:16;;;;;;;17.77;9.88;;;;;;;0.18;83.33;97126.63;1734187;81;21176;-82
2020/12/22 03:23:44;;;;;;;12.13;7.87;;;;;;;0.20;83.29;97124.62;1734293;82;21644;-82
2020/12/22 03:26:11;;;;;;;18.25;9.80;;;;;;;0.21;83.32;97107.17;1734292;82;21126;-82
2020/12/22 03:28:39;;;;;;;16.73;10.55;;;;;;;0.24;83.31;97110.67;1734150;83;21111;-82
2020/12/22 03:31:05;;;;;;;17.35;10.70;;;;;;;0.27;83.25;97111.57;1734085;81;21123;-82
2020/12/22 03:33:32;;;;;;;8.35;4.97;;;;;;;0.24;83.19;97108.88;1734292;83;21139;-82
2020/12/22 03:35:59;;;;;;;11.60;6.70;;;;;;;0.25;83.40;97107.86;1734201;83;21672;-82
2020/12/22 03:38:27;;;;;;;13.10;6.08;;;;;;;0.32;83.15;97096.15;1734169;82;21133;-82
2020/12/22 03:40:54;;;;;;;15.13;8.45;;;;;;;0.35;82.93;97106.17;1734219;81;21162;-82
2020/12/22 03:43:21;;;;;;;16.12;10.03;;;;;;;0.39;82.98;97094.83;1734201;82;21514;-82
2020/12/22 03:45:49;;;;;;;16.48;10.03;;;;;;;0.44;82.88;97090.63;1734122;82;21514;-82
2020/12/22 03:48:16;;;;;;;12.75;7.30;;;;;;;0.46;82.88;97085.20;1734145;83;21134;-82
2020/12/22 03:50:43;;;;;;;17.20;10.10;;;;;;;0.47;82.76;97092.83;1734115;81;21536;-82
2020/12/22 03:53:10;;;;;;;12.20;7.20;;;;;;;0.51;82.78;97095.32;1734263;83;21284;-82
2020/12/22 03:55:37;;;;;;;18.92;10.18;;;;;;;0.51;82.59;97071.05;1734121;83;21151;-82
2020/12/22 03:58:04;;;;;;;11.28;6.53;;;;;;;0.47;82.65;97056.31;1734163;83;21127;-82
2020/12/22 04:00:31;;;;;;;13.22;7.28;;;;;;;0.47;82.55;97035.95;1734076;81;21459;-82
2020/12/22 04:02:58;;;;;;;18.07;10.88;;;;;;;0.53;82.71;97039.83;1734233;82;21126;-82
2020/12/22 04:05:25;;;;;;;16.40;6.67;;;;;;;0.53;82.69;97048.16;1734363;83;21522;-82
2020/12/22 04:07:52;;;;;;;11.48;6.78;;;;;;;0.52;82.68;97042.14;1734579;83;21140;-82
2020/12/22 04:10:18;;;;;;;13.65;8.60;;;;;;;0.51;82.71;97037.94;1734274;81;21142;-82
2020/12/22 04:12:45;;;;;;;11.85;6.97;;;;;;;0.52;82.71;97050.47;1731378;83;21292;-82
2020/12/22 04:15:12;;;;;;;16.17;8.78;;;;;;;0.58;82.65;97050.48;1728909;83;21174;-82
2020/12/22 04:17:42;;;;;;;13.32;7.15;;;;;;;0.70;82.68;97052.44;1728934;83;21284;-82
2020/12/22 04:20:09;;;;;;;13.17;8.63;;;;;;;0.78;82.45;97060.86;1729075;82;21133;-82
2020/12/22 04:22:36;;;;;;;15.05;9.40;;;;;;;0.84;82.21;97059.22;1728960;83;21352;-82
2020/12/22 04:25:05;;;;;;;10.65;5.53;;;;;;;0.89;82.09;97057.63;1729127;83;21143;-82
2020/12/22 04:27:32;;;;;;;10.93;6.85;;;;;;;0.90;81.76;97027.09;1728825;83;21139;-82
2020/12/22 04:29:59;;;;;;;13.10;8.65;;;;;;;0.95;81.71;97033.00;1728837;82;21189;-82
2020/12/22 04:32:26;;;;;;;12.13;6.47;;;;;;;0.96;81.54;97035.39;1728956;83;21162;-82
2020/12/22 04:34:54;;;;;;;11.73;7.75;;;;;;;1.01;81.30;97034.30;1728891;83;21309;-82
2020/12/22 04:37:21;;;;;;;11.35;5.40;;;;;;;1.04;81.18;97028.65;1728803;83;21297;-82
2020/12/22 04:39:48;;;;;;;9.25;5.92;;;;;;;1.04;80.87;97024.73;1729054;82;21186;-82
2020/12/22 04:42:17;;;;;;;10.10;5.97;;;;;;;1.01;80.92;97027.77;1728795;83;21491;-82
2020/12/22 04:44:45;;;;;;;15.03;8.38;;;;;;;1.00;80.78;97002.67;1728823;83;21292;-81
2020/12/22 04:47:16;;;;;;;12.18;7.03;;;;;;;1.03;80.85;97023.13;1728828;83;21107;-82
2020/12/22 04:49:47;;;;;;;12.55;7.55;;;;;;;1.04;80.80;97014.80;1729141;82;21123;-82
2020/12/22 04:52:14;;;;;;;9.08;5.50;;;;;;;1.06;80.93;97020.10;1728855;83;21390;-82
2020/12/22 04:54:41;;;;;;;9.30;5.40;;;;;;;1.11;80.87;97017.66;1729138;83;21111;-82
2020/12/22 04:57:08;;;;;;;12.93;6.40;;;;;;;1.25;80.62;97024.12;1700122;83;21210;-82
2020/12/22 04:59:39;;;;;;;8.15;4.75;;;;;;;1.41;80.27;97009.30;1728818;82;21139;-82
2020/12/22 05:02:08;;;;;;;7.85;5.37;;;;;;;1.46;79.92;97004.23;1728829;83;21122;-82
2020/12/22 05:04:38;;;;;;;8.83;5.67;;;;;;;1.45;79.78;96973.89;1728829;83;21609;-82
2020/12/22 05:07:06;;;;;;;9.05;6.03;;;;;;;1.41;79.68;96998.34;1728907;83;21281;-82
2020/12/22 05:09:34;;;;;;;8.40;5.10;;;;;;;1.34;79.61;97009.31;1728827;82;21138;-82
2020/12/22 05:12:01;;;;;;;11.55;5.17;;;;;;;1.32;79.76;97006.63;1729231;83;21510;-82
2020/12/22 05:14:31;;;;;;;8.25;5.42;;;;;;;1.32;79.75;96994.36;1735278;83;21095;-82
2020/12/22 05:16:58;;;;;;;8.88;5.75;;;;;;;1.34;79.67;97010.63;1735118;83;21154;-82
2020/12/22 05:19:33;;;;;;;8.18;5.25;;;;;;;1.37;79.73;96988.50;1735297;83;21147;-82
2020/12/22 05:21:57;;;;;;;10.00;5.28;;;;;;;1.41;79.54;96985.78;1734178;83;21114;-82
2020/12/22 05:24:25;;;;;;;8.68;4.97;;;;;;;1.47;79.35;96992.77;1735055;83;21171;-82
2020/12/22 05:26:52;;;;;;;7.83;4.72;;;;;;;1.50;79.37;97013.23;1734978;83;21514;-82
2020/12/22 05:29:19;;;;;;;8.38;4.83;;;;;;;1.47;79.26;97006.63;1710469;83;21482;-82
2020/12/22 05:31:49;;;;;;;7.92;5.55;;;;;;;1.45;79.19;97002.12;1735042;81;21151;-82
2020/12/22 05:34:19;;;;;;;7.40;5.72;;;;;;;1.42;79.34;96993.41;1735183;83;21495;-82
2020/12/22 05:36:48;;;;;;;7.67;5.20;;;;;;;1.44;79.51;97013.59;1735076;82;21530;-82
2020/12/22 05:39:18;;;;;;;10.33;5.40;;;;;;;1.45;79.34;96997.41;1735261;83;21151;-82
2020/12/22 05:41:46;;;;;;;7.45;5.20;;;;;;;1.44;79.40;96996.61;1734922;81;21378;-82
2020/12/22 05:44:13;;;;;;;7.58;4.42;;;;;;;1.45;79.49;96985.66;1735333;83;21134;-82
2020/12/22 05:46:42;;;;;;;10.88;5.15;;;;;;;1.51;79.23;96996.55;1735006;83;21163;-82
2020/12/22 05:49:11;;;;;;;8.03;5.70;;;;;;;1.56;79.08;97001.97;1735100;83;21143;-82
2020/12/22 05:51:38;;;;;;;10.38;5.30;;;;;;;1.58;79.17;96995.22;1734987;81;21154;-82
2020/12/22 05:54:08;;;;;;;8.45;5.12;;;;;;;1.59;79.10;96975.41;1735089;83;21166;-82
2020/12/22 05:56:36;;;;;;;6.95;4.50;;;;;;;1.57;78.99;96972.21;1735247;83;21175;-82
2020/12/22 05:59:03;;;;;;;8.28;4.80;;;;;;;1.60;79.00;96976.20;1735011;83;21103;-82
2020/12/22 06:01:35;;;;;;;7.03;4.03;;;;;;;1.61;78.88;96975.98;1735059;81;21475;-82
2020/12/22 06:04:04;;;;;;;6.72;3.75;;;;;;;1.63;78.79;96977.08;1735127;82;21467;-82
2020/12/22 06:06:33;;;;;;;6.47;3.52;;;;;;;1.65;78.75;96948.41;1735039;83;21503;-82
2020/12/22 06:09:00;;;;;;;10.65;6.10;;;;;;;1.68;78.72;96956.33;1734967;83;21462;-82
2020/12/22 06:11:29;;;;;;;8.93;4.80;;;;;;;1.71;78.85;96954.11;1735111;81;21162;-82
2020/12/22 06:13:57;;;;;;;7.63;4.57;;;;;;;1.74;78.57;96969.36;1729780;82;21509;-83
2020/12/22 06:16:25;;;;;;;9.00;5.40;;;;;;;1.78;78.55;96951.43;1728717;83;21143;-83
2020/12/22 06:18:53;;;;;;;9.75;5.22;;;;;;;1.79;78.42;96946.49;1728756;83;21111;-83
2020/12/22 06:21:22;;;;;;;8.03;4.33;;;;;;;1.82;78.39;96947.88;1728799;82;21490;-83
2020/12/22 06:23:52;;;;;;;6.03;3.40;;;;;;;1.84;78.34;96960.25;1728924;83;21130;-82
2020/12/22 06:26:19;;;;;;;11.63;6.40;;;;;;;1.87;78.11;96948.85;1728817;83;21641;-82
2020/12/22 06:28:46;;;;;;;11.57;5.42;;;;;;;1.92;77.99;96949.50;1728708;83;21301;-83
2020/12/22 06:31:23;;;;;;;11.25;5.42;;;;;;;1.96;77.92;96938.39;1728907;82;21119;-82
2020/12/22 06:33:52;;;;;;;8.03;4.70;;;;;;;2.02;77.98;96956.36;1728762;83;21265;-82
2020/12/22 06:36:21;;;;;;;10.43;6.23;;;;;;;2.06;77.76;96961.45;1728990;83;21534;-82
2020/12/22 06:38:55;;;;;;;11.25;6.00;;;;;;;2.13;77.56;96932.63;1728652;83;21680;-83
2020/12/22 06:41:28;;;;;;;7.17;4.75;;;;;;;2.18;77.55;96958.42;1728884;82;21155;-82
2020/12/22 06:43:56;;;;;;;9.58;5.70;;;;;;;2.19;77.21;96955.30;1699817;84;21288;-83
2020/12/22 06:46:38;;;;;;;10.53;5.60;;;;;;;2.20;77.08;96917.14;1699734;84;21324;-82
2020/12/22 06:49:06;;;;;;;7.95;5.10;;;;;;;2.18;77.07;96913.16;1699680;84;21284;-83
2020/12/22 06:51:39;;;;;;;8.73;4.58;;;;;;;2.19;76.91;96914.24;1699863;83;21284;-83
2020/12/22 06:54:21;;;;;;;8.03;4.85;;;;;;;2.22;76.82;96919.55;1699681;84;21285;-83
2020/12/22 06:56:50;;;;;;;7.30;4.33;;;;;;;2.25;76.69;96905.55;1699649;84;21293;-83
2020/12/22 06:59:47;;;;;;;9.00;5.08;;;;;;;2.28;76.51;96910.33;1699361;84;21080;-83
2020/12/22 07:02:35;;;;;;;6.00;4.35;;;;;;;2.29;76.69;96896.23;1699871;84;21147;-82
2020/12/22 07:05:06;;;;;;;7.58;4.65;;;;;;;2.32;76.54;96883.22;1700090;84;21135;-83
2020/12/22 07:07:56;;;;;;;7.80;5.15;;;;;;;2.40;76.41;96907.00;1699414;84;21344;-83
2020/12/22 07:10:29;;;;;;;5.12;3.52;;;;;;;2.42;76.37;96897.11;1699787;83;21281;-83
2020/12/22 07:12:59;;;;;;;7.30;4.25;;;;;;;2.45;76.08;96887.50;1718717;83;21123;-83
2020/12/22 07:15:34;;;;;;;;;;;;;;;2.46;75.97;96882.56;1731548;83;21121;-83
2020/12/22 07:18:11;;;;;;;8.23;4.37;;;;;;;2.52;75.91;96881.67;1728764;83;20165;-83
2020/12/22 07:20:44;;;;;;;5.80;4.22;;;;;;;2.55;75.56;96863.73;1729010;82;21545;-83
2020/12/22 07:23:12;;;;;;;9.20;5.80;;;;;;;2.60;75.33;96914.09;1728635;83;21142;-82
2020/12/22 07:25:42;;;;;;;7.33;4.28;;;;;;;2.61;75.30;96877.23;1728804;83;21138;-83
2020/12/22 07:28:11;;;;;;;8.43;4.42;;;;;;;2.61;75.34;96887.70;1728749;83;21273;-83
2020/12/22 07:30:39;;;;;;;6.78;4.62;;;;;;;2.61;75.44;96881.66;1728989;82;21621;-83
2020/12/22 07:33:07;;;;;;;7.80;4.75;;;;;;;2.63;75.40;96886.16;1728654;83;21274;-83
2020/12/22 07:35:34;;;;;;;10.32;6.15;;;;;;;2.68;75.23;96871.41;1729180;83;21166;-83
2020/12/22 07:38:10;;;;;;;11.80;6.72;;;;;;;2.76;74.87;96879.45;1728634;83;21278;-83
2020/12/22 07:40:40;;;;;;;7.40;4.25;;;;;;;2.84;74.75;96884.39;1728866;82;21139;-83
2020/12/22 07:43:10;;;;;;;12.70;5.85;;;;;;;2.87;74.45;96887.87;1728765;83;21166;-82
2020/12/22 07:45:49;;;;;;;11.97;6.90;;;;;;;2.92;74.58;96875.41;1729019;83;21114;-83
2020/12/22 07:48:18;;;;;;;10.35;6.03;;;;;;;2.93;74.36;96877.80;1728872;83;21119;-82
2020/12/22 07:50:54;;;;;;;9.10;5.08;;;;;;;2.92;74.38;96867.04;1728850;82;21143;-83
2020/12/22 07:53:21;;;;;;;10.63;5.12;;;;;;;2.93;74.16;96868.64;1728883;83;21617;-83
2020/12/22 07:55:49;;;;;;;8.40;5.47;;;;;;;2.94;74.24;96857.14;1728819;83;21151;-83
2020/12/22 07:58:16;;;;;;;9.25;5.20;;;;;;;2.95;74.17;96862.66;1728827;83;21155;-83
2020/12/22 08:00:43;;;;;;;10.28;5.65;;;;;;;2.97;73.98;96865.09;1728939;82;21125;-83
2020/12/22 08:03:16;;;;;;;7.47;4.90;;;;;;;3.00;73.98;96875.63;1728821;83;21131;-83
2020/12/22 08:06:01;;;;;;;10.45;6.03;;;;;;;3.04;73.85;96854.50;1728960;83;21484;-83
2020/12/22 08:08:30;;;;;;;12.43;5.53;;;;;;;3.09;73.86;96863.78;1728779;83;21115;-83
2020/12/22 08:10:57;;;;;;;9.25;5.45;;;;;;;3.15;73.75;96887.79;1729077;82;21151;-83
2020/12/22 08:13:30;;;;;;;8.33;5.47;;;;;;;3.21;73.65;96865.41;1730423;83;21174;-83
2020/12/22 08:15:59;;;;;;;7.22;4.83;;;;;;;3.27;73.59;96861.11;1735233;83;21491;-83
2020/12/22 08:18:32;;;;;;;11.95;6.65;;;;;;;3.38;73.18;96864.75;1735019;83;21138;-83
2020/12/22 08:21:01;;;;;;;11.12;6.62;;;;;;;3.43;73.14;96862.27;1735049;81;21139;-83
2020/12/22 08:23:29;;;;;;;9.10;5.65;;;;;;;3.44;72.70;96863.86;1735175;82;21147;-83
2020/12/22 08:25:58;;;;;;;8.23;4.87;;;;;;;3.46;72.29;96897.19;1735159;83;21142;-83
2020/12/22 08:28:27;;;;;;;9.38;5.55;;;;;;;3.45;72.31;96862.33;1734991;83;21158;-83
2020/12/22 08:30:56;;;;;;;10.23;6.20;;;;;;;3.43;72.35;96874.86;1735190;81;21548;-83
2020/12/22 08:33:24;;;;;;;9.65;6.80;;;;;;;3.38;72.34;96871.30;1731243;83;21147;-83
2020/12/22 08:35:52;;;;;;;9.58;6.15;;;;;;;3.36;72.56;96884.63;1735006;83;21163;-83
2020/12/22 08:38:27;;;;;;;10.38;6.05;;;;;;;3.32;72.76;96879.56;1734998;83;21138;-83
2020/12/22 08:40:56;;;;;;;7.92;5.22;;;;;;;3.28;72.90;96870.05;1735047;81;21196;-83
2020/12/22 08:43:25;;;;;;;9.95;6.10;;;;;;;3.28;73.06;96852.22;1735024;83;21515;-83
2020/12/22 08:45:53;;;;;;;10.30;5.08;;;;;;;3.31;73.33;96868.80;1735079;82;21131;-84
2020/12/22 08:48:20;;;;;;;11.55;6.40;;;;;;;3.34;73.02;96865.72;1734997;83;21131;-84
2020/12/22 08:50:51;;;;;;;8.60;5.78;;;;;;;3.36;73.01;96870.22;1735027;81;21514;-83
2020/12/22 08:53:18;;;;;;;8.75;4.87;;;;;;;3.39;72.88;96868.48;1735170;83;21142;-83
2020/12/22 08:55:45;;;;;;;12.75;5.67;;;;;;;3.41;72.92;96849.91;1735106;83;21522;-84
2020/12/22 08:58:12;;;;;;;11.33;6.50;;;;;;;3.43;72.83;96863.06;1734959;83;21148;-83
2020/12/22 09:00:40;;;;;;;9.23;5.30;;;;;;;3.47;72.89;96853.72;1735012;81;21506;-84
2020/12/22 09:03:08;;;;;;;8.80;5.87;;;;;;;3.48;72.77;96842.20;1735020;82;21151;-84
2020/12/22 09:05:35;;;;;;;9.00;5.12;;;;;;;3.51;73.01;96829.95;1735078;83;21530;-83
2020/12/22 09:08:05;;;;;;;9.28;5.22;;;;;;;3.53;72.93;96828.44;1735044;83;21156;-83
2020/12/22 09:10:32;;;;;;;9.43;5.70;;;;;;;3.51;72.60;96835.20;1735285;81;21145;-84
2020/12/22 09:12:59;;;;;;;9.40;5.30;;;;;;;3.51;72.60;96835.20;1735030;83;21170;-83
2020/12/22 09:15:26;;;;;;;11.20;5.70;;;;;;;3.52;72.92;96804.57;1734912;82;21150;-83
2020/12/22 09:17:53;;;;;;;10.90;6.15;;;;;;;3.52;72.92;96805.88;1734932;83;21511;-84
2020/12/22 09:20:24;;;;;;;9.25;6.10;;;;;;;3.54;73.05;96812.48;1735035;81;21143;-84
2020/12/22 09:22:55;;;;;;;8.80;4.15;;;;;;;3.56;73.13;96813.05;1735014;83;21511;-83
2020/12/22 09:25:23;;;;;;;6.60;4.55;;;;;;;3.61;73.16;96789.27;1734027;83;21151;-83
2020/12/22 09:27:52;;;;;;;11.73;6.72;;;;;;;3.66;73.03;96814.28;1735057;83;21146;-84
2020/12/22 09:30:19;;;;;;;13.25;6.03;;;;;;;3.70;73.15;96783.98;1735183;81;21491;-83
2020/12/22 09:32:47;;;;;;;10.82;6.55;;;;;;;3.72;72.99;96774.05;1735070;83;21506;-83
2020/12/22 09:35:14;;;;;;;8.20;5.60;;;;;;;3.72;73.22;96764.88;1734992;82;21143;-83
2020/12/22 09:37:42;;;;;;;10.63;5.80;;;;;;;3.72;73.09;96764.36;1710163;83;21202;-83
2020/12/22 09:40:10;;;;;;;7.47;4.58;;;;;;;3.74;73.03;96754.95;1734948;81;21151;-84
2020/12/22 09:42:38;;;;;;;8.10;6.10;;;;;;;3.74;73.06;96749.70;1735083;83;21110;-83
2020/12/22 09:45:05;;;;;;;9.93;7.00;;;;;;;3.75;73.17;96756.55;1734980;83;21127;-83
2020/12/22 09:47:32;;;;;;;13.00;7.03;;;;;;;3.75;73.15;96786.70;1734999;83;21135;-84
2020/12/22 09:49:59;;;;;;;8.28;5.37;;;;;;;3.74;73.20;96747.09;1734941;81;21110;-84
2020/12/22 09:52:27;;;;;;;8.65;5.28;;;;;;;3.75;73.15;96735.56;1735280;83;21126;-84
2020/12/22 09:54:54;;;;;;;8.05;5.50;;;;;;;3.76;73.26;96748.95;1735012;83;21497;-83
2020/12/22 09:57:21;;;;;;;8.80;6.25;;;;;;;3.78;73.08;96763.94;1735002;83;21188;-83
2020/12/22 09:59:48;;;;;;;9.25;5.90;;;;;;;3.79;73.17;96757.16;1734943;81;21216;-83
2020/12/22 10:02:16;;;;;;;12.37;7.10;;;;;;;3.80;73.06;96740.91;1734960;83;21142;-83
2020/12/22 10:04:43;;;;;;;11.10;6.35;;;;;;;3.80;73.15;96736.97;1735031;83;21138;-83
2020/12/22 10:07:10;;;;;;;7.67;4.53;;;;;;;3.81;73.22;96755.64;1735016;83;21523;-83
2020/12/22 10:09:37;;;;;;;9.55;5.75;;;;;;;3.84;73.21;96761.73;1735059;81;21146;-83
2020/12/22 10:12:05;;;;;;;8.75;5.65;;;;;;;3.84;73.09;96758.59;1735146;83;21153;-83
2020/12/22 10:14:32;;;;;;;10.58;5.72;;;;;;;3.83;73.41;96749.13;1735010;82;21193;-83
2020/12/22 10:17:00;;;;;;;10.32;6.53;;;;;;;3.83;73.67;96768.80;1735132;82;21119;-83
2020/12/22 10:19:27;;;;;;;9.98;5.87;;;;;;;3.83;73.92;96753.58;1735084;83;21499;-83
2020/12/22 10:21:54;;;;;;;12.00;5.97;;;;;;;3.85;73.87;96756.25;1735063;83;21142;-83
2020/12/22 10:24:21;;;;;;;10.48;6.58;;;;;;;3.87;73.92;96733.72;1734966;83;21483;-83
2020/12/22 10:26:48;;;;;;;10.05;5.25;;;;;;;3.89;74.08;96742.15;1735039;83;21138;-83
2020/12/22 10:29:15;;;;;;;6.75;5.08;;;;;;;3.91;74.01;96765.00;1734864;83;21126;-83
2020/12/22 10:31:42;;;;;;;10.05;6.03;;;;;;;3.93;74.12;96744.58;1734874;81;21150;-83
2020/12/22 10:34:10;;;;;;;11.85;5.08;;;;;;;3.94;74.30;96754.07;1734953;82;21155;-83
2020/12/22 10:36:37;;;;;;;11.22;6.25;;;;;;;3.96;74.22;96734.16;1735026;83;21147;-84
2020/12/22 10:39:04;;;;;;;7.60;5.17;;;;;;;3.97;74.47;96721.33;1734972;83;21515;-84
2020/12/22 10:41:34;;;;;;;10.85;6.35;;;;;;;3.98;74.37;96725.03;1734903;81;21467;-83
2020/12/22 10:44:01;;;;;;;;;;;;;;;3.99;74.34;96716.13;1737662;82;21216;-83
2020/12/22 10:46:29;;;;;;;7.67;4.83;;;;;;;4.01;74.40;96726.38;1734928;83;20122;-83
2020/12/22 11:00:11;;;;;;;7.75;4.15;;;;;;;4.58;73.51;96680.41;1848045;77;23431;-88
2020/12/22 11:02:39;;;;;;;8.63;4.67;;;;;;;4.58;73.32;96669.91;1802497;80;21661;-87
2020/12/22 11:05:08;;;;;;;9.00;5.50;;;;;;;4.58;73.72;96698.80;1821220;78;21273;-87
2020/12/22 11:07:40;;;;;;;7.17;4.03;;;;;;;4.48;74.36;96677.89;1788769;80;21132;-87
2020/12/22 11:10:05;;;;;;;7.08;3.77;;;;;;;4.41;75.07;96689.08;1809805;79;21160;-86
2020/12/22 11:12:32;;;;;;;10.85;5.58;;;;;;;4.36;75.64;96701.30;1809955;79;21146;-87
2020/12/22 11:14:59;;;;;;;7.70;4.75;;;;;;;4.30;75.87;96693.06;1809854;79;21656;-87
2020/12/22 11:17:27;;;;;;;9.43;4.92;;;;;;;4.20;76.33;96701.55;1809943;79;21141;-87
2020/12/22 11:19:54;;;;;;;12.78;7.12;;;;;;;4.07;77.14;96680.84;1796489;79;21235;-87
2020/12/22 11:22:21;;;;;;;11.33;7.05;;;;;;;3.94;77.58;96685.87;1788807;80;21150;-87
2020/12/22 11:24:48;;;;;;;11.22;6.80;;;;;;;3.86;77.83;96684.92;1778267;81;21115;-87
2020/12/22 11:27:15;;;;;;;13.03;6.22;;;;;;;3.80;78.20;96679.28;1778292;81;21161;-88
2020/12/22 11:29:43;;;;;;;11.03;6.08;;;;;;;3.72;78.76;96676.53;1788835;80;21158;-87
2020/12/22 11:32:12;;;;;;;9.55;6.50;;;;;;;3.68;78.94;96654.44;1778552;81;21150;-87
2020/12/22 11:34:39;;;;;;;12.45;7.00;;;;;;;3.69;79.26;96660.48;1788856;80;21479;-88
2020/12/22 11:37:06;;;;;;;9.15;5.30;;;;;;;3.70;79.41;96643.20;1778036;81;21138;-88
2020/12/22 11:39:34;;;;;;;10.75;6.83;;;;;;;3.70;79.94;96652.38;1788775;80;21143;-87
2020/12/22 11:42:05;;;;;;;9.35;5.72;;;;;;;3.67;80.05;96637.64;1778389;81;21482;-88
2020/12/22 11:44:45;;;;;;;10.32;5.72;;;;;;;3.74;80.68;96637.77;1877986;76;22882;-88
2020/12/22 11:47:13;;;;;;;10.63;5.97;;;;;;;3.72;80.90;96601.81;1819634;79;21154;-88
2020/12/22 11:49:41;;;;;;;13.22;5.70;;;;;;;3.76;81.04;96614.72;1845383;77;21238;-87
2020/12/22 11:52:11;;;;;;;9.83;6.72;;;;;;;3.82;81.42;96614.31;1852635;77;21106;-88
2020/12/22 11:54:38;;;;;;;7.35;4.90;;;;;;;3.87;81.46;96610.47;1801716;80;21143;-87